Time;durP1;ratioP1;P1;durP2;ratioP2;P2;SDS_P1;SDS_P2;PMS_P1;PMS_P2;Temp;Humidity;BMP_temperature;BMP_pressure;BME280_temperature;BME280_humidity;BME280_pressure;Samples;Min_cycle;Max_cycle;Signal;HPM_P1;HPM_P2
2022/06/18 00:04:56;;;;;;;4.20;2.67;;;;;;;;;;10478338;28;20272;-72
2022/06/18 00:10:01;;;;;;;5.45;2.15;;;;;;;;;;10491432;28;20193;-71
2022/06/18 00:15:03;;;;;;;3.90;2.13;;;;;;;;;;10499441;28;21540;-72
2022/06/18 00:20:05;;;;;;;5.05;1.88;;;;;;;;;;10500682;28;20265;-72
2022/06/18 00:25:18;;;;;;;3.15;2.20;;;;;;;;;;10499889;28;20673;-72
2022/06/18 00:30:21;;;;;;;3.38;2.05;;;;;;;;;;10478824;28;21693;-72
2022/06/18 00:35:22;;;;;;;2.75;2.20;;;;;;;;;;10496102;28;20288;-72
2022/06/18 00:40:29;;;;;;;1.83;1.55;;;;;;;;;;10461101;28;20186;-72
2022/06/18 00:45:30;;;;;;;2.15;1.55;;;;;;;;;;10478194;28;20218;-72
2022/06/18 00:50:37;;;;;;;1.65;1.55;;;;;;;;;;10500315;28;20181;-72
2022/06/18 00:55:55;;;;;;;1.40;1.40;;;;;;;;;;10479049;28;20979;-72
2022/06/18 01:00:56;;;;;;;1.75;1.65;;;;;;;;;;10493296;28;20216;-72
2022/06/18 01:06:01;;;;;;;1.67;1.27;;;;;;;;;;10494700;28;20942;-72
2022/06/18 01:11:05;;;;;;;4.63;1.80;;;;;;;;;;10478794;28;20194;-72
2022/06/18 01:16:08;;;;;;;2.55;1.42;;;;;;;;;;10491444;28;20212;-72
2022/06/18 01:21:14;;;;;;;2.65;1.40;;;;;;;;;;10483406;28;20182;-72
2022/06/18 01:26:16;;;;;;;2.53;1.25;;;;;;;;;;10493488;28;20713;-72
2022/06/18 01:31:19;;;;;;;8.43;2.00;;;;;;;;;;10497671;28;21190;-72
2022/06/18 01:36:21;;;;;;;1.42;1.42;;;;;;;;;;10496102;28;20709;-71
2022/06/18 01:46:49;;;;;;;2.45;1.58;;;;;;;;;;10474708;28;20744;-72
2022/06/18 01:51:54;;;;;;;3.25;2.10;;;;;;;;;;10495938;28;20285;-72
2022/06/18 01:57:04;;;;;;;1.73;1.70;;;;;;;;;;10491157;28;20393;-72
2022/06/18 02:02:05;;;;;;;2.25;1.60;;;;;;;;;;10473163;28;20210;-72
2022/06/18 02:07:07;;;;;;;3.05;1.77;;;;;;;;;;10481279;28;20256;-71
2022/06/18 02:12:19;;;;;;;2.33;1.65;;;;;;;;;;10473232;28;20210;-72
2022/06/18 02:17:21;;;;;;;1.83;1.50;;;;;;;;;;10469865;28;20229;-72
2022/06/18 02:22:26;;;;;;;4.05;1.33;;;;;;;;;;10485150;28;20198;-72
2022/06/18 02:27:27;;;;;;;1.35;1.25;;;;;;;;;;10486421;28;20221;-72
2022/06/18 02:32:46;;;;;;;1.40;1.40;;;;;;;;;;10493656;28;20251;-72
2022/06/18 02:37:49;;;;;;;1.67;1.65;;;;;;;;;;10475982;28;20706;-72
2022/06/18 02:42:51;;;;;;;1.38;1.38;;;;;;;;;;10479555;28;20197;-72
2022/06/18 02:47:54;;;;;;;3.22;1.40;;;;;;;;;;10490282;28;20221;-72
2022/06/18 02:52:58;;;;;;;1.50;1.50;;;;;;;;;;10476068;28;20265;-72
2022/06/18 02:58:02;;;;;;;3.60;1.73;;;;;;;;;;10489071;28;20221;-72
2022/06/18 03:03:06;;;;;;;1.83;1.80;;;;;;;;;;10488598;28;20217;-72
2022/06/18 03:08:07;;;;;;;3.80;1.75;;;;;;;;;;10469034;28;20229;-72
2022/06/18 03:13:09;;;;;;;3.72;1.98;;;;;;;;;;10465761;28;20192;-72
2022/06/18 03:18:16;;;;;;;3.50;1.88;;;;;;;;;;10474390;28;20237;-72
2022/06/18 03:23:18;;;;;;;2.05;1.95;;;;;;;;;;10468650;28;20198;-72
2022/06/18 03:28:20;;;;;;;2.45;2.25;;;;;;;;;;10489159;28;20301;-72
2022/06/18 03:33:21;;;;;;;1.85;1.80;;;;;;;;;;10461547;28;20725;-72
2022/06/18 03:38:22;;;;;;;3.53;1.70;;;;;;;;;;10464324;28;20210;-72
2022/06/18 03:43:25;;;;;;;3.78;2.42;;;;;;;;;;10462774;28;20197;-72
2022/06/18 03:48:28;;;;;;;3.20;2.13;;;;;;;;;;10484152;28;20336;-72
2022/06/18 03:53:29;;;;;;;1.80;1.70;;;;;;;;;;10481979;28;20217;-72
2022/06/18 03:58:30;;;;;;;3.70;2.08;;;;;;;;;;10488400;28;20209;-72
2022/06/18 04:03:31;;;;;;;1.60;1.60;;;;;;;;;;10470774;28;20217;-72
2022/06/18 04:08:32;;;;;;;2.00;1.60;;;;;;;;;;10486488;28;20968;-72
2022/06/18 04:13:36;;;;;;;1.58;1.48;;;;;;;;;;10489156;28;20178;-71
2022/06/18 04:18:56;;;;;;;3.22;1.33;;;;;;;;;;10487221;28;20217;-71
2022/06/18 04:23:57;;;;;;;4.45;1.92;;;;;;;;;;10485602;28;20224;-71
2022/06/18 04:28:59;;;;;;;1.73;1.45;;;;;;;;;;10478332;28;20217;-71
2022/06/18 04:34:01;;;;;;;1.40;1.35;;;;;;;;;;10484556;28;20690;-71
2022/06/18 04:39:07;;;;;;;3.83;1.50;;;;;;;;;;10497821;28;20236;-71
2022/06/18 04:44:28;;;;;;;1.52;1.20;;;;;;;;;;10492996;28;20210;-72
2022/06/18 04:49:41;;;;;;;1.63;1.50;;;;;;;;;;10464408;28;20201;-71
2022/06/18 04:54:45;;;;;;;1.15;1.15;;;;;;;;;;10491743;28;20192;-72
2022/06/18 04:59:46;;;;;;;3.17;1.20;;;;;;;;;;10476049;28;20202;-72
2022/06/18 05:04:47;;;;;;;2.35;1.13;;;;;;;;;;10488722;28;20229;-72
2022/06/18 05:10:06;;;;;;;1.75;1.00;;;;;;;;;;10471273;28;20268;-71
2022/06/18 05:15:24;;;;;;;0.88;0.88;;;;;;;;;;10495998;28;20209;-71
2022/06/18 05:20:26;;;;;;;1.85;0.88;;;;;;;;;;10498334;28;20273;-71
2022/06/18 05:25:31;;;;;;;0.90;0.90;;;;;;;;;;10492206;28;20217;-71
2022/06/18 05:30:33;;;;;;;1.27;1.20;;;;;;;;;;10467924;28;20213;-72
2022/06/18 05:35:38;;;;;;;1.95;0.93;;;;;;;;;;10492313;28;21069;-73
2022/06/18 05:40:39;;;;;;;1.20;1.10;;;;;;;;;;10480251;28;20197;-73
2022/06/18 05:45:42;;;;;;;1.10;1.10;;;;;;;;;;10467290;28;20245;-74
2022/06/18 05:50:43;;;;;;;0.70;0.70;;;;;;;;;;10477767;28;20189;-74
2022/06/18 05:55:44;;;;;;;0.63;0.63;;;;;;;;;;10485411;28;20213;-74
2022/06/18 06:00:57;;;;;;;1.67;0.80;;;;;;;;;;10494344;28;20720;-74
2022/06/18 06:06:00;;;;;;;1.42;0.60;;;;;;;;;;10492873;28;20209;-74
2022/06/18 06:16:34;;;;;;;1.05;0.60;;;;;;;;;;10465039;28;21060;-74
2022/06/18 06:21:37;;;;;;;0.60;0.60;;;;;;;;;;10472161;28;20297;-74
2022/06/18 06:26:38;;;;;;;1.85;0.60;;;;;;;;;;10475927;28;20697;-74
2022/06/18 06:31:39;;;;;;;0.70;0.70;;;;;;;;;;10480771;28;20216;-74
2022/06/18 06:36:40;;;;;;;4.47;0.70;;;;;;;;;;10485085;28;20225;-74
2022/06/18 06:41:41;;;;;;;1.67;0.60;;;;;;;;;;10490713;28;20918;-73
2022/06/18 06:46:42;;;;;;;1.75;0.70;;;;;;;;;;10465937;28;20224;-73
2022/06/18 06:51:43;;;;;;;2.03;0.60;;;;;;;;;;10473067;28;20274;-74
2022/06/18 07:02:10;;;;;;;1.35;0.70;;;;;;;;;;10480864;28;20224;-72
2022/06/18 07:07:12;;;;;;;0.88;0.70;;;;;;;;;;10473748;28;20225;-73
2022/06/18 07:12:13;;;;;;;0.93;0.80;;;;;;;;;;10481051;28;21102;-74
2022/06/18 07:17:17;;;;;;;0.93;0.80;;;;;;;;;;10456751;28;20756;-74
2022/06/18 07:22:18;;;;;;;2.75;0.70;;;;;;;;;;10478804;28;20281;-74
2022/06/18 07:27:19;;;;;;;4.30;0.80;;;;;;;;;;10482985;28;20304;-74
2022/06/18 07:32:21;;;;;;;1.20;1.08;;;;;;;;;;10474877;28;20209;-75
2022/06/18 07:37:22;;;;;;;1.20;1.08;;;;;;;;;;10452394;28;20205;-75
2022/06/18 07:42:23;;;;;;;1.00;1.00;;;;;;;;;;10474237;28;20202;-74
2022/06/18 07:47:24;;;;;;;0.93;0.88;;;;;;;;;;10474067;28;20217;-75
2022/06/18 07:52:25;;;;;;;1.42;0.73;;;;;;;;;;10472420;28;20190;-75
2022/06/18 07:57:26;;;;;;;2.15;1.02;;;;;;;;;;10477727;28;21331;-74
2022/06/18 08:02:27;;;;;;;2.38;1.10;;;;;;;;;;10479446;28;20221;-74
2022/06/18 08:07:28;;;;;;;1.33;1.08;;;;;;;;;;10487493;28;20241;-74
2022/06/18 08:12:31;;;;;;;3.67;1.35;;;;;;;;;;10485697;28;20201;-74
2022/06/18 08:17:32;;;;;;;3.30;0.93;;;;;;;;;;10483966;28;20237;-75
2022/06/18 08:22:33;;;;;;;7.45;1.17;;;;;;;;;;10465774;28;20422;-74
2022/06/18 08:27:35;;;;;;;4.07;0.90;;;;;;;;;;10494448;28;20224;-74
2022/06/18 08:32:36;;;;;;;1.35;1.20;;;;;;;;;;10489400;28;20210;-74
2022/06/18 08:37:38;;;;;;;1.33;1.20;;;;;;;;;;10480627;28;20213;-72
2022/06/18 08:42:47;;;;;;;1.20;1.10;;;;;;;;;;10489265;28;20243;-72
2022/06/18 08:47:48;;;;;;;2.13;1.35;;;;;;;;;;10484650;28;20338;-73
2022/06/18 08:53:08;;;;;;;4.35;1.40;;;;;;;;;;10488308;28;20193;-73
2022/06/18 08:58:25;;;;;;;2.50;1.63;;;;;;;;;;10482886;28;20241;-72
2022/06/18 09:03:35;;;;;;;9.40;1.80;;;;;;;;;;10473678;28;20297;-74
2022/06/18 09:08:45;;;;;;;6.00;1.63;;;;;;;;;;10484284;28;20221;-73
2022/06/18 09:13:46;;;;;;;1.92;1.42;;;;;;;;;;10483886;28;20217;-74
2022/06/18 09:18:51;;;;;;;3.13;1.83;;;;;;;;;;10483842;28;20294;-74
2022/06/18 09:23:56;;;;;;;1.73;1.60;;;;;;;;;;10485050;28;20197;-73
2022/06/18 09:29:01;;;;;;;4.57;1.95;;;;;;;;;;10480516;28;20209;-73
2022/06/18 09:34:11;;;;;;;2.58;1.83;;;;;;;;;;10479356;28;20220;-72
2022/06/18 09:39:25;;;;;;;3.63;1.70;;;;;;;;;;10479745;28;20206;-74
2022/06/18 09:44:45;;;;;;;4.63;1.95;;;;;;;;;;10475305;28;20717;-72
2022/06/18 09:49:47;;;;;;;3.83;1.70;;;;;;;;;;10480506;28;20213;-72
2022/06/18 09:54:54;;;;;;;4.90;1.58;;;;;;;;;;10481164;28;20190;-73
2022/06/18 10:00:02;;;;;;;7.88;1.98;;;;;;;;;;10479431;28;20190;-73
2022/06/18 10:10:36;;;;;;;4.22;2.00;;;;;;;;;;10478118;28;20189;-74
2022/06/18 10:15:37;;;;;;;5.75;3.00;;;;;;;;;;10476454;28;20399;-74
2022/06/18 10:20:43;;;;;;;9.15;2.00;;;;;;;;;;10477139;28;20634;-73
2022/06/18 10:26:10;;;;;;;5.22;1.83;;;;;;;;;;10474618;28;20217;-73
2022/06/18 10:31:31;;;;;;;5.25;1.73;;;;;;;;;;10430141;28;20220;-73
2022/06/18 10:36:38;;;;;;;5.00;2.08;;;;;;;;;;10414205;28;20205;-73
2022/06/18 10:41:58;;;;;;;7.05;1.90;;;;;;;;;;10481007;28;20198;-72
2022/06/18 10:47:04;;;;;;;3.42;2.10;;;;;;;;;;10481634;28;20367;-72
2022/06/18 10:52:05;;;;;;;5.68;1.95;;;;;;;;;;10472853;28;20183;-72
2022/06/18 10:57:06;;;;;;;5.35;2.20;;;;;;;;;;10475149;28;20197;-72
2022/06/18 11:02:12;;;;;;;5.45;1.70;;;;;;;;;;10474614;28;20225;-73
2022/06/18 11:07:13;;;;;;;3.35;2.10;;;;;;;;;;10471590;28;20254;-73
2022/06/18 11:12:22;;;;;;;6.25;2.42;;;;;;;;;;10475864;28;20320;-71
2022/06/18 11:17:36;;;;;;;6.70;2.40;;;;;;;;;;10480959;28;20210;-71
2022/06/18 11:22:38;;;;;;;5.30;2.15;;;;;;;;;;10483216;28;21022;-73
2022/06/18 11:27:39;;;;;;;7.68;2.50;;;;;;;;;;10486459;28;20219;-72
2022/06/18 11:32:46;;;;;;;5.07;4.30;;;;;;;;;;10478784;28;20214;-72
2022/06/18 11:38:16;;;;;;;7.45;2.22;;;;;;;;;;10476135;28;20837;-71
2022/06/18 11:43:27;;;;;;;9.38;2.47;;;;;;;;;;10470042;28;20186;-73
2022/06/18 11:48:40;;;;;;;6.50;2.47;;;;;;;;;;10494225;28;20219;-72
2022/06/18 11:54:17;;;;;;;7.90;3.33;;;;;;;;;;10458969;28;20300;-71
2022/06/18 11:59:26;;;;;;;4.68;2.58;;;;;;;;;;10366097;28;20286;-72
2022/06/18 12:04:31;;;;;;;5.90;2.70;;;;;;;;;;10481047;28;20882;-74
2022/06/18 12:09:32;;;;;;;5.95;3.05;;;;;;;;;;10489971;28;20217;-72
2022/06/18 12:14:52;;;;;;;4.13;2.92;;;;;;;;;;10490486;28;20220;-72
2022/06/18 12:19:59;;;;;;;4.75;3.10;;;;;;;;;;10493626;28;20209;-72
2022/06/18 12:25:15;;;;;;;6.60;2.53;;;;;;;;;;10489694;28;20774;-73
2022/06/18 12:30:19;;;;;;;6.88;2.40;;;;;;;;;;10480539;28;20196;-75
2022/06/18 12:35:32;;;;;;;10.70;2.25;;;;;;;;;;10462229;28;20612;-75
2022/06/18 12:40:38;;;;;;;6.07;2.47;;;;;;;;;;10493502;28;20222;-73
2022/06/18 12:45:47;;;;;;;5.78;2.25;;;;;;;;;;10493143;28;20284;-74
2022/06/18 12:51:01;;;;;;;7.95;3.00;;;;;;;;;;10481062;28;20196;-74
2022/06/18 12:56:05;;;;;;;5.47;2.88;;;;;;;;;;10483838;28;20267;-73
2022/06/18 13:01:28;;;;;;;7.90;2.88;;;;;;;;;;10475395;28;20248;-73
2022/06/18 13:06:33;;;;;;;9.30;3.15;;;;;;;;;;10488171;28;20221;-73
2022/06/18 13:11:34;;;;;;;7.68;3.05;;;;;;;;;;10482289;28;20173;-73
2022/06/18 13:16:45;;;;;;;6.13;2.70;;;;;;;;;;10481990;28;20213;-72
2022/06/18 13:21:47;;;;;;;8.02;2.63;;;;;;;;;;10485752;28;20192;-72
2022/06/18 13:32:17;;;;;;;11.63;2.80;;;;;;;;;;10482289;28;20214;-72
2022/06/18 13:37:21;;;;;;;6.57;2.67;;;;;;;;;;10478375;28;20202;-73
2022/06/18 13:42:34;;;;;;;10.18;3.22;;;;;;;;;;10476189;28;20209;-72
2022/06/18 13:47:55;;;;;;;7.10;2.78;;;;;;;;;;10458865;28;20231;-73
2022/06/18 13:52:57;;;;;;;8.95;2.80;;;;;;;;;;10488437;28;20185;-72
2022/06/18 13:57:58;;;;;;;9.20;2.88;;;;;;;;;;10487333;28;20271;-72
2022/06/18 14:03:07;;;;;;;15.05;2.92;;;;;;;;;;10487737;28;20891;-73
2022/06/18 14:08:25;;;;;;;8.48;3.25;;;;;;;;;;10481412;28;20240;-73
2022/06/18 14:13:27;;;;;;;9.25;2.78;;;;;;;;;;10485719;28;20743;-71
2022/06/18 14:18:28;;;;;;;11.23;3.28;;;;;;;;;;10482131;28;20209;-73
2022/06/18 14:23:37;;;;;;;8.20;2.90;;;;;;;;;;10488192;28;20198;-72
2022/06/18 14:28:46;;;;;;;9.70;2.90;;;;;;;;;;10489036;28;21144;-72
2022/06/18 14:33:59;;;;;;;12.18;3.25;;;;;;;;;;10486406;28;20300;-73
2022/06/18 14:39:01;;;;;;;10.25;3.13;;;;;;;;;;10485083;28;20223;-73
2022/06/18 14:44:12;;;;;;;8.77;4.00;;;;;;;;;;10488033;28;20192;-73
2022/06/18 14:49:16;;;;;;;14.45;3.70;;;;;;;;;;10484930;28;20263;-73
2022/06/18 14:54:17;;;;;;;11.25;3.08;;;;;;;;;;10488930;28;20563;-73
2022/06/18 14:59:24;;;;;;;10.90;3.00;;;;;;;;;;10487741;28;20213;-73
2022/06/18 15:04:25;;;;;;;12.48;3.45;;;;;;;;;;10482660;28;20230;-74
2022/06/18 15:09:32;;;;;;;11.90;3.40;;;;;;;;;;10483893;28;20912;-72
2022/06/18 15:14:33;;;;;;;9.48;3.17;;;;;;;;;;10485774;28;20318;-73
2022/06/18 15:19:38;;;;;;;8.85;2.97;;;;;;;;;;10484226;28;20251;-73
2022/06/18 15:30:24;;;;;;;12.48;3.35;;;;;;;;;;10482757;28;20630;-73
2022/06/18 15:35:27;;;;;;;14.85;3.25;;;;;;;;;;10464397;28;20229;-73
2022/06/18 15:40:28;;;;;;;13.45;3.55;;;;;;;;;;10482461;28;20280;-72
2022/06/18 15:45:31;;;;;;;7.90;3.88;;;;;;;;;;10455124;28;20217;-72
2022/06/18 15:50:33;;;;;;;11.93;3.42;;;;;;;;;;10473950;28;20182;-73
2022/06/18 15:55:40;;;;;;;10.15;3.53;;;;;;;;;;10453629;28;20237;-74
2022/06/18 16:00:42;;;;;;;10.32;3.60;;;;;;;;;;10474230;28;20922;-73
2022/06/18 16:05:44;;;;;;;10.43;3.53;;;;;;;;;;10474283;28;20217;-73
2022/06/18 16:10:45;;;;;;;11.00;2.97;;;;;;;;;;10475965;28;20198;-73
2022/06/18 16:15:48;;;;;;;11.63;3.55;;;;;;;;;;10461278;28;22273;-73
2022/06/18 16:20:57;;;;;;;11.75;2.97;;;;;;;;;;10476999;28;20182;-73
2022/06/18 16:25:59;;;;;;;9.77;3.50;;;;;;;;;;10483641;28;20214;-73
2022/06/18 16:31:04;;;;;;;7.22;3.03;;;;;;;;;;10483697;28;20229;-73
2022/06/18 16:36:11;;;;;;;7.63;3.47;;;;;;;;;;10483635;28;20221;-74
2022/06/18 16:41:15;;;;;;;9.55;3.17;;;;;;;;;;10485492;28;20285;-73
2022/06/18 16:46:25;;;;;;;11.77;3.78;;;;;;;;;;10483252;28;20715;-72
2022/06/18 16:51:43;;;;;;;6.82;3.38;;;;;;;;;;10488163;28;20236;-72
2022/06/18 16:56:45;;;;;;;6.75;3.10;;;;;;;;;;10486172;28;20709;-72
2022/06/18 17:01:46;;;;;;;8.00;3.40;;;;;;;;;;10490136;28;20259;-70
2022/06/18 17:06:50;;;;;;;21.10;5.45;;;;;;;;;;10486032;28;20733;-71
2022/06/18 17:11:51;;;;;;;13.50;3.25;;;;;;;;;;10494703;28;20218;-71
2022/06/18 17:16:52;;;;;;;5.28;3.15;;;;;;;;;;10484942;28;20218;-72
2022/06/18 17:21:54;;;;;;;9.60;3.50;;;;;;;;;;10494534;28;20278;-72
2022/06/18 17:32:14;;;;;;;13.48;3.70;;;;;;;;;;10481768;28;20729;-72
2022/06/18 17:37:15;;;;;;;8.20;3.60;;;;;;;;;;10491409;28;20206;-73
2022/06/18 17:42:17;;;;;;;10.75;3.40;;;;;;;;;;10488690;28;20197;-72
2022/06/18 17:47:18;;;;;;;13.60;3.65;;;;;;;;;;10493717;28;20238;-72
2022/06/18 17:52:19;;;;;;;14.70;3.80;;;;;;;;;;10493231;28;20243;-72
2022/06/18 17:57:20;;;;;;;9.82;3.45;;;;;;;;;;10496948;28;20212;-73
2022/06/18 18:02:23;;;;;;;9.85;3.55;;;;;;;;;;10493263;28;20697;-72
2022/06/18 18:07:26;;;;;;;8.07;3.72;;;;;;;;;;10493537;28;20231;-72
2022/06/18 18:12:29;;;;;;;7.45;3.60;;;;;;;;;;10495722;28;20706;-72
2022/06/18 18:17:31;;;;;;;8.20;3.83;;;;;;;;;;10491697;28;20242;-72
2022/06/18 18:22:32;;;;;;;16.80;3.95;;;;;;;;;;10490247;28;20183;-71
2022/06/18 18:27:33;;;;;;;13.85;3.97;;;;;;;;;;10488306;28;20217;-72
2022/06/18 18:32:34;;;;;;;9.77;4.10;;;;;;;;;;10472488;28;20205;-74
2022/06/18 18:37:36;;;;;;;9.80;3.70;;;;;;;;;;10490800;28;20228;-73
2022/06/18 18:42:38;;;;;;;11.57;4.20;;;;;;;;;;10493449;28;20178;-72
2022/06/18 18:47:39;;;;;;;8.13;3.35;;;;;;;;;;10491628;28;20300;-73
2022/06/18 18:52:40;;;;;;;9.68;3.38;;;;;;;;;;10494985;28;20190;-72
2022/06/18 18:57:41;;;;;;;10.27;3.22;;;;;;;;;;10482559;28;20210;-73
2022/06/18 19:02:42;;;;;;;13.27;3.30;;;;;;;;;;10489379;28;20213;-73
2022/06/18 19:07:43;;;;;;;12.00;3.33;;;;;;;;;;10488918;28;20639;-72
2022/06/18 19:13:03;;;;;;;9.88;3.47;;;;;;;;;;10477981;28;20198;-74
2022/06/18 19:18:04;;;;;;;8.50;3.97;;;;;;;;;;10490226;28;20305;-73
2022/06/18 19:23:06;;;;;;;12.38;3.70;;;;;;;;;;10484199;28;20193;-73
2022/06/18 19:28:07;;;;;;;9.30;3.78;;;;;;;;;;10484159;28;20236;-73
2022/06/18 19:33:08;;;;;;;12.15;4.13;;;;;;;;;;10480770;28;20729;-73
2022/06/18 19:38:09;;;;;;;8.02;4.45;;;;;;;;;;10442636;28;20232;-73
2022/06/18 19:43:11;;;;;;;18.27;4.95;;;;;;;;;;10460315;28;20200;-73
2022/06/18 19:48:12;;;;;;;16.00;4.45;;;;;;;;;;10474812;28;20213;-74
2022/06/18 19:53:14;;;;;;;19.55;4.00;;;;;;;;;;10484850;28;20263;-73
2022/06/18 19:58:15;;;;;;;10.48;4.13;;;;;;;;;;10484814;28;20711;-73
2022/06/18 20:03:16;;;;;;;9.63;3.42;;;;;;;;;;10485426;28;20672;-73
2022/06/18 20:08:18;;;;;;;8.27;3.60;;;;;;;;;;10463108;28;20290;-74
2022/06/18 20:13:19;;;;;;;6.07;3.47;;;;;;;;;;10471684;28;20198;-74
2022/06/18 20:18:20;;;;;;;6.15;3.10;;;;;;;;;;10490477;28;20347;-73
2022/06/18 20:23:22;;;;;;;7.68;3.40;;;;;;;;;;10474580;28;20186;-73
2022/06/18 20:28:23;;;;;;;6.45;3.47;;;;;;;;;;10487475;28;21266;-73
2022/06/18 20:33:24;;;;;;;7.20;3.40;;;;;;;;;;10472219;28;20317;-73
2022/06/18 20:38:25;;;;;;;7.10;3.03;;;;;;;;;;10490255;28;20630;-73
2022/06/18 20:43:31;;;;;;;5.68;3.15;;;;;;;;;;10493658;28;20719;-74
